Airfield :







YOU CAN JOIN US ON...

 
LOGIN :

Register | Disclaimer

   EN    FR    IT 

 









Legend :    VFR   Marginal VFR   IFR   Intensive IFR   Very Intensive IFR
Visi :
Ceiling :
>= 8 km
>= 3000ft
5 to 8 km
1000 to 3000 ft
1500m to 5 km
500 to 1000 ft
800 to 1500m
200 to 500 ft
< 800m
< 200 ft
Symbols :   Thunderstorms  Fog  Heavy snow  Heavy precipitations  Wind > 20 kt






- Airport Elevation : 193 ft
- IATA code : ZBF


CZBF - Bathurst

CURRENT METAR :
  • 222200Z AUTO VRB02KT 9SM OVC055 21/17 A2965 RMK SLP042 DENSITY ALT 1200FT

EXPIRED METARs :
  • 222100Z AUTO VRB02KT 9SM BKN055 OVC072 21/19 A2964 RMK SLP037 DENSITY ALT 1300FT
  • 222014Z AUTO 28003KT 250V330 9SM BKN047 BKN055 OVC077 21/19 A2961 RMK SLP027 DENSITY ALT 1400FT
  • 222000Z AUTO 28005KT 230V320 9SM -RA SCT024 BKN044 OVC055 22/19 A2961 RMK SLP027 DENSITY ALT 1400FT
  • 221955Z AUTO 27006KT 230V320 8SM -RA SCT024 OVC044 22/19 A2961 RMK SLP028 DENSITY ALT 1400FT
  • 221940Z AUTO 26010KT 6SM +RA SCT024 BKN042 OVC060 22/19 A2960 RMK PRESRR SLP026 DENSITY ALT 1400FT

TAF AMD TAF CZBF
Valid from the 22 at 21:00 until the 23 at 03:00 UTC


222102Z 2221/2303 28003KT P6SM SCT020 BKN050 OVC070
TEMPO 2221/2303 5SM -SHRA BR BKN015 OVC060
BECMG 2221/2223 32012G22KT RMK FCST BASED ON AUTO OBS. NXT FCST WILL BE ISSUED AT 230845Z
CZQM FIR / North America



MET'MAP, your aeronautical weather chart ! - Copyright ORBIFLY December 2007 - Disclaimer

ORBIFLY MET'MAP TEAM :

Programming & Development : Alexandra Zaïnal
Concept & original design : Baudouin d'Aumeries
Assistance for programming : Marc-Olivier Méhu
Technical & hardware support : Manuel Goepfert

Contact : metmap@orbifly.com




SOURCES & CREDITS :

   NOAA